Nearby METAR Reports

 

KORH - Worcester, Massachusetts, USA
Distance from station: NW 4mi, 7km
Updated: Sat, 25-May-2024 8:54pm EDT
Clear
Clear
 Wind from SW
Wind: SW 10 mph, 17 km/h
Temperature: 66°F, 19°C
Dew Point: 52°F, 11°C
Humidity: 60%
Barometer: 29.88 inHg, 1011.9 hPa
Clouds: Clear
Visibility: 10 miles, 16 km
2024/05/26 00:54 KORH 260054Z 22009KT 10SM CLR 19/11 A2988 RMK AO2 SLP116 T01890111
KBOS - Boston, Massachusetts, USA
Distance from station: ENE 42mi, 68km
Updated: Sat, 25-May-2024 8:54pm EDT
Mostly cloudy
Mostly cloudy
 Wind from S
Wind: S 13 mph, 20 km/h
Temperature: 66°F, 19°C
Dew Point: 50°F, 10°C
Humidity: 56%
Barometer: 29.86 inHg, 1011.2 hPa
Clouds: Mostly cloudy
Visibility: 10 miles, 16 km
Cloud details: Partly cloudy 15000 ft
Partly cloudy 22000 ft
Mostly cloudy 25000 ft
2024/05/26 00:54 KBOS 260054Z 19011KT 10SM SCT150 SCT220 BKN250 19/10 A2986 RMK AO2 SLP109 T01890100
 
KCQX - Chatham, Massachusetts, USA
Distance from station: SE 102mi, 164km
Updated: Sat, 25-May-2024 8:52pm EDT
Clear
Clear
 Wind from SSW
Wind: SSW 5 mph, 7 km/h
Temperature: 66°F, 19°C
Dew Point: 48°F, 9°C
Humidity: 52%
Barometer: 29.91 inHg, 1012.9 hPa
Clouds: Clear
Visibility: 10 miles, 16 km
2024/05/26 00:52 KCQX 260052Z AUTO 20004KT 10SM CLR 19/09 A2991 RMK AO2 SLP129 T01940089 PWINO
KMVY - Marthas Vineyard, Massachusetts, USA
Distance from station: SE 84mi, 135km
Updated: Sat, 25-May-2024 8:53pm EDT
Clear
Clear
 Wind from SSW
Wind: SSW 8 mph, 13 km/h
Temperature: 57°F, 14°C
Dew Point: 52°F, 11°C
Humidity: 82%
Barometer: 29.90 inHg, 1012.5 hPa
Clouds: Clear
Visibility: 10 miles, 16 km
2024/05/26 00:53 KMVY 260053Z 20007KT 10SM CLR 14/11 A2990 RMK AO2 SLP125 T01390106
 
KPVC - Provincetown, Massachusetts, USA
Distance from station: NNW 85mi, 136km
Updated: Sat, 25-May-2024 8:56pm EDT
Clear
Clear
 Wind from S
Wind: S 10 mph, 17 km/h
Temperature: 61°F, 16°C
Dew Point: 52°F, 11°C
Humidity: 72%
Barometer: 29.89 inHg, 1012.2 hPa
Clouds: Clear
Visibility: 10 miles, 16 km
2024/05/26 00:56 KPVC 260056Z AUTO 19009KT 10SM CLR 16/11 A2989 RMK AO2 SLP122 T01560111
KAQW - Savoy, Massachusetts, USA
Distance from station: NNW 66mi, 106km
Updated: Sat, 25-May-2024 8:52pm EDT
Few Clouds
Few Clouds
 Wind from calm
Wind: Calm
Temperature: 64°F, 18°C
Dew Point: 57°F, 14°C
Humidity: 78%
Barometer: 29.86 inHg, 1011.2 hPa
Clouds: Few Clouds
Visibility: 10 miles, 16 km
Cloud details: Few Clouds 6500 ft
2024/05/26 00:52 KAQW 260052Z AUTO 00000KT 10SM FEW065 18/14 A2986 RMK AO2 SLP112 T01830139
 
KIZG - Fryeburg, Maine, USA
Distance from station: NNE 133mi, 214km
Updated: Sat, 25-May-2024 8:54pm EDT
Partly cloudy
Partly cloudy
 Wind from WSW
Wind: WSW 3 mph, 6 km/h
Temperature: 61°F, 16°C
Dew Point: 52°F, 11°C
Humidity: 72%
Barometer: 29.85 inHg, 1010.8 hPa
Clouds: Partly cloudy
Visibility: 10 miles, 16 km
Cloud details: Partly cloudy 11000 ft
2024/05/26 00:54 KIZG 260054Z AUTO 25003KT 10SM SCT110 16/11 A2985 RMK AO2 SLP109 T01610111
KMWN - Mt Washington, New Hampshire, USA
Distance from station: NNE 146mi, 234km
Updated: Sat, 25-May-2024 8:56pm EDT
Overcast
Overcast
 Wind from W
Wind: W 36 mph, 57 km/h
Temperature: 43°F, 6°C
Wind Chill: 32°F, 0°C
Dew Point: 34°F, 1°C
Humidity: 71%
Clouds: Overcast
Visibility: 70 miles, 112 km
Cloud details: Partly cloudy 2000 ft
Partly cloudy 3000 ft
Mostly cloudy 10000 ft
Overcast 22000 ft
2024/05/26 00:56 KMWN 260056Z 28031KT 70SM SCT020 SCT030 BKN100 OVC220 06/01 RMK SCSL DSNT NE-SE SH DSNT W BINOVC
 
KBML - Berlin, New Hampshire, USA
Distance from station: NNE 160mi, 257km
Updated: Sat, 25-May-2024 8:52pm EDT
Few Clouds
Few Clouds
 Wind from calm
Wind: Calm
Temperature: 57°F, 14°C
Dew Point: 46°F, 8°C
Humidity: 67%
Barometer: 29.86 inHg, 1011.2 hPa
Clouds: Few Clouds
Visibility: 10 miles, 16 km
Cloud details: Few Clouds 12000 ft
2024/05/26 00:52 KBML 260052Z AUTO 00000KT 10SM FEW120 14/08 A2986 RMK AO2 SLP111 T01440083